Time;durP1;ratioP1;P1;durP2;ratioP2;P2;SDS_P1;SDS_P2;PMS_P1;PMS_P2;Temp;Humidity;BMP_temperature;BMP_pressure;BME280_temperature;BME280_humidity;BME280_pressure;Samples;Min_cycle;Max_cycle;Signal;HPM_P1;HPM_P2
2022/06/05 00:03:30;;;;;;;30.13;21.92;;;;;;;;;;9989850;28;20122;-64
2022/06/05 00:08:43;;;;;;;23.00;20.55;;;;;;;;;;9990230;28;20108;-64
2022/06/05 00:13:45;;;;;;;26.30;22.75;;;;;;;;;;9979397;28;20054;-64
2022/06/05 00:18:45;;;;;;;27.83;21.70;;;;;;;;;;9976646;28;20418;-64
2022/06/05 00:23:39;;;;;;;32.58;24.02;;;;;;;;;;9979035;28;20058;-64
2022/06/05 00:28:50;;;;;;;23.77;21.30;;;;;;;;;;9977577;28;20046;-64
2022/06/05 00:33:47;;;;;;;25.85;23.38;;;;;;;;;;9986568;28;20055;-64
2022/06/05 00:38:53;;;;;;;25.65;23.00;;;;;;;;;;9988247;28;20070;-64
2022/06/05 00:43:48;;;;;;;26.63;22.98;;;;;;;;;;9978044;28;20474;-63
2022/06/05 00:48:41;;;;;;;25.05;22.42;;;;;;;;;;9963048;28;20050;-63
2022/06/05 00:53:35;;;;;;;26.48;22.05;;;;;;;;;;9975251;28;20508;-62
2022/06/05 00:58:31;;;;;;;28.55;23.67;;;;;;;;;;9982141;28;20053;-63
2022/06/05 01:03:26;;;;;;;34.28;24.92;;;;;;;;;;9972332;28;20104;-63
2022/06/05 01:08:20;;;;;;;29.52;25.45;;;;;;;;;;9961684;28;20454;-63
2022/06/05 01:13:26;;;;;;;29.92;24.30;;;;;;;;;;9976099;28;20143;-63
2022/06/05 01:18:24;;;;;;;24.63;22.05;;;;;;;;;;9973394;28;20077;-64
2022/06/05 01:23:19;;;;;;;29.58;24.73;;;;;;;;;;9975070;28;20090;-63
2022/06/05 01:28:18;;;;;;;33.63;24.65;;;;;;;;;;9963449;28;20101;-63
2022/06/05 01:33:18;;;;;;;31.83;26.80;;;;;;;;;;9973775;28;20056;-63
2022/06/05 01:38:41;;;;;;;32.20;27.15;;;;;;;;;;9986021;28;20501;-64
2022/06/05 01:43:40;;;;;;;37.20;28.50;;;;;;;;;;9960682;28;20112;-63
2022/06/05 01:48:44;;;;;;;45.07;27.90;;;;;;;;;;9977918;28;20061;-64
2022/06/05 01:53:42;;;;;;;39.25;29.77;;;;;;;;;;9984240;28;20348;-63
2022/06/05 01:58:59;;;;;;;34.08;30.00;;;;;;;;;;9968392;28;20077;-63
2022/06/05 02:04:29;;;;;;;35.70;30.80;;;;;;;;;;9985979;28;20111;-63
2022/06/05 02:09:34;;;;;;;32.40;27.40;;;;;;;;;;9970914;28;20137;-63
2022/06/05 02:14:29;;;;;;;36.90;30.10;;;;;;;;;;9973642;28;20058;-63
2022/06/05 02:19:24;;;;;;;38.13;29.83;;;;;;;;;;9985820;28;20497;-63
2022/06/05 02:24:19;;;;;;;42.03;33.67;;;;;;;;;;9972111;28;20141;-63
2022/06/05 02:29:20;;;;;;;38.22;31.80;;;;;;;;;;9985696;28;20104;-64
2022/06/05 02:34:37;;;;;;;36.83;32.85;;;;;;;;;;9984824;28;20108;-63
2022/06/05 02:40:04;;;;;;;36.13;32.22;;;;;;;;;;9982908;28;20552;-63
2022/06/05 02:45:14;;;;;;;37.55;30.80;;;;;;;;;;9967132;28;20662;-63
2022/06/05 02:50:28;;;;;;;38.60;31.65;;;;;;;;;;9961593;28;20059;-63
2022/06/05 02:55:22;;;;;;;38.15;32.40;;;;;;;;;;9974683;28;20657;-63
2022/06/05 03:00:22;;;;;;;35.80;29.20;;;;;;;;;;9978596;28;20485;-64
2022/06/05 03:05:16;;;;;;;34.70;27.58;;;;;;;;;;9988184;28;20058;-63
2022/06/05 03:10:16;;;;;;;34.38;30.70;;;;;;;;;;9994710;28;20089;-63
2022/06/05 03:15:11;;;;;;;33.85;29.38;;;;;;;;;;9985398;28;20101;-64
2022/06/05 03:20:10;;;;;;;34.25;28.60;;;;;;;;;;9992376;28;20138;-63
2022/06/05 03:25:07;;;;;;;32.83;28.70;;;;;;;;;;9992535;28;20132;-64
2022/06/05 03:30:02;;;;;;;35.38;30.20;;;;;;;;;;9993661;28;20563;-63
2022/06/05 03:34:57;;;;;;;31.15;27.73;;;;;;;;;;9984797;28;20061;-63
2022/06/05 03:39:51;;;;;;;37.13;29.70;;;;;;;;;;9974484;28;20075;-64
2022/06/05 03:44:46;;;;;;;33.53;27.83;;;;;;;;;;9985044;28;20058;-63
2022/06/05 03:49:42;;;;;;;32.13;28.33;;;;;;;;;;9988017;28;20058;-64
2022/06/05 03:54:39;;;;;;;35.60;28.48;;;;;;;;;;9978946;28;20106;-63
2022/06/05 03:59:39;;;;;;;35.03;29.08;;;;;;;;;;9991990;28;20050;-64
2022/06/05 04:04:34;;;;;;;36.17;28.88;;;;;;;;;;9991934;28;20092;-63
2022/06/05 04:09:29;;;;;;;38.22;27.05;;;;;;;;;;9986890;28;20133;-63
2022/06/05 04:14:24;;;;;;;31.60;24.98;;;;;;;;;;9989670;28;20070;-64
2022/06/05 04:19:18;;;;;;;29.48;23.05;;;;;;;;;;9980056;28;20489;-63
2022/06/05 04:24:12;;;;;;;29.42;24.15;;;;;;;;;;9992262;28;20049;-63
2022/06/05 04:29:07;;;;;;;34.92;21.23;;;;;;;;;;9983626;28;20390;-63
2022/06/05 04:34:03;;;;;;;34.97;24.20;;;;;;;;;;9984863;28;20417;-63
2022/06/05 04:38:57;;;;;;;28.30;22.50;;;;;;;;;;9982129;28;20109;-63
2022/06/05 04:43:51;;;;;;;29.50;24.25;;;;;;;;;;9983811;28;20051;-63
2022/06/05 04:48:46;;;;;;;35.25;26.55;;;;;;;;;;9979175;28;20054;-64
2022/06/05 04:53:42;;;;;;;36.45;29.80;;;;;;;;;;9979590;28;20074;-63
2022/06/05 04:58:38;;;;;;;36.60;29.75;;;;;;;;;;9984464;28;20129;-74
2022/06/05 05:03:33;;;;;;;38.63;29.67;;;;;;;;;;9984727;28;20077;-69
2022/06/05 05:08:29;;;;;;;38.35;29.02;;;;;;;;;;9984830;28;20088;-71
2022/06/05 05:13:23;;;;;;;33.47;28.52;;;;;;;;;;9982754;28;20121;-70
2022/06/05 05:18:19;;;;;;;37.25;30.15;;;;;;;;;;9986097;28;20123;-68
2022/06/05 05:23:15;;;;;;;41.55;32.58;;;;;;;;;;9982685;28;20046;-68
2022/06/05 05:28:10;;;;;;;42.65;32.80;;;;;;;;;;9983319;28;20573;-68
2022/06/05 05:33:06;;;;;;;39.33;31.52;;;;;;;;;;9985991;28;20618;-70
2022/06/05 05:38:01;;;;;;;35.20;31.38;;;;;;;;;;9984967;28;20042;-69
2022/06/05 05:42:56;;;;;;;36.25;31.85;;;;;;;;;;9980035;28;20085;-70
2022/06/05 05:47:52;;;;;;;37.72;32.67;;;;;;;;;;9980707;28;20486;-68
2022/06/05 05:52:46;;;;;;;38.60;32.60;;;;;;;;;;9985822;28;20077;-69
2022/06/05 05:57:42;;;;;;;42.97;34.30;;;;;;;;;;9982141;28;20054;-69
2022/06/05 06:02:37;;;;;;;42.33;33.75;;;;;;;;;;9985424;28;20504;-70
2022/06/05 06:07:30;;;;;;;41.95;33.13;;;;;;;;;;9976203;28;20410;-68
2022/06/05 06:12:26;;;;;;;39.53;33.78;;;;;;;;;;9996780;28;20201;-68
2022/06/05 06:17:24;;;;;;;42.53;33.10;;;;;;;;;;9996094;28;20058;-68
2022/06/05 06:22:19;;;;;;;41.55;36.00;;;;;;;;;;9997566;28;20046;-68
2022/06/05 06:27:13;;;;;;;46.40;39.05;;;;;;;;;;9991234;28;20517;-67
2022/06/05 06:32:09;;;;;;;53.05;43.10;;;;;;;;;;9994859;28;20145;-69
2022/06/05 06:37:04;;;;;;;59.38;44.05;;;;;;;;;;9990576;28;20489;-67
2022/06/05 06:41:59;;;;;;;54.53;42.42;;;;;;;;;;9992213;28;20057;-66
2022/06/05 06:46:52;;;;;;;50.75;43.70;;;;;;;;;;9989688;28;20389;-67
2022/06/05 06:51:49;;;;;;;45.22;37.10;;;;;;;;;;9987768;28;20080;-68
2022/06/05 06:56:44;;;;;;;42.30;37.63;;;;;;;;;;9987184;28;20050;-66
2022/06/05 07:01:39;;;;;;;45.25;37.28;;;;;;;;;;9987726;28;20053;-67
2022/06/05 07:06:34;;;;;;;43.00;37.10;;;;;;;;;;9987542;28;20524;-67
2022/06/05 07:11:29;;;;;;;47.83;39.47;;;;;;;;;;9992337;28;20084;-68
2022/06/05 07:16:24;;;;;;;46.40;37.92;;;;;;;;;;9991068;28;20497;-68
2022/06/05 07:21:24;;;;;;;44.38;36.58;;;;;;;;;;9991285;28;20049;-67
2022/06/05 07:26:21;;;;;;;44.42;36.90;;;;;;;;;;9990195;28;20054;-71
2022/06/05 07:31:18;;;;;;;45.80;39.17;;;;;;;;;;9992587;28;20051;-69
2022/06/05 07:36:16;;;;;;;46.00;35.13;;;;;;;;;;9994816;28;20062;-69
2022/06/05 07:41:26;;;;;;;50.00;40.22;;;;;;;;;;9992952;28;20441;-66
2022/06/05 07:46:21;;;;;;;44.70;39.50;;;;;;;;;;9986046;28;20505;-67
2022/06/05 07:56:35;;;;;;;48.80;37.35;;;;;;;;;;9990289;28;20105;-66
2022/06/05 08:01:33;;;;;;;49.40;36.78;;;;;;;;;;9988739;28;20497;-64
2022/06/05 08:06:28;;;;;;;54.38;40.05;;;;;;;;;;9990279;28;20548;-67
2022/06/05 08:11:21;;;;;;;50.33;39.97;;;;;;;;;;9990141;28;20565;-72
2022/06/05 08:16:17;;;;;;;48.05;40.58;;;;;;;;;;9981483;28;20090;-68
2022/06/05 08:21:13;;;;;;;47.08;37.65;;;;;;;;;;9987157;28;20047;-73
2022/06/05 08:26:07;;;;;;;49.03;37.50;;;;;;;;;;9988753;28;20141;-68
2022/06/05 08:31:02;;;;;;;44.70;37.22;;;;;;;;;;9987499;28;20398;-67
2022/06/05 08:35:57;;;;;;;41.53;33.58;;;;;;;;;;9983215;28;20498;-68
2022/06/05 08:41:30;;;;;;;42.05;34.70;;;;;;;;;;9989974;28;20141;-70
2022/06/05 08:46:45;;;;;;;56.10;38.45;;;;;;;;;;9932979;28;20050;-67
2022/06/05 08:51:41;;;;;;;46.30;37.55;;;;;;;;;;9987083;28;20679;-70
2022/06/05 08:56:50;;;;;;;48.03;39.08;;;;;;;;;;9998897;28;20086;-68
2022/06/05 09:01:59;;;;;;;47.55;39.95;;;;;;;;;;9986159;28;20089;-71
2022/06/05 09:06:58;;;;;;;57.08;41.70;;;;;;;;;;9988437;28;20141;-70
2022/06/05 09:12:03;;;;;;;47.92;35.38;;;;;;;;;;9973045;28;20062;-68
2022/06/05 09:17:21;;;;;;;45.38;36.00;;;;;;;;;;9980356;28;20050;-69
2022/06/05 09:22:42;;;;;;;41.88;33.72;;;;;;;;;;9986574;28;20061;-68
2022/06/05 09:27:52;;;;;;;44.40;34.67;;;;;;;;;;9984466;28;20386;-70
2022/06/05 09:33:14;;;;;;;40.88;32.20;;;;;;;;;;9961787;28;20057;-70
2022/06/05 09:38:25;;;;;;;39.70;29.88;;;;;;;;;;9987025;28;20482;-70
2022/06/05 09:43:21;;;;;;;34.50;30.75;;;;;;;;;;9985102;28;20046;-70
2022/06/05 09:48:35;;;;;;;33.03;26.35;;;;;;;;;;9979358;28;20050;-70
2022/06/05 09:53:32;;;;;;;32.47;25.98;;;;;;;;;;9988142;28;20097;-68
2022/06/05 09:58:27;;;;;;;31.02;23.73;;;;;;;;;;9979152;28;20130;-69
2022/06/05 10:03:38;;;;;;;29.75;26.55;;;;;;;;;;9976001;28;20400;-70
2022/06/05 10:08:50;;;;;;;25.58;22.85;;;;;;;;;;9986333;28;20070;-68
2022/06/05 10:14:11;;;;;;;30.90;22.83;;;;;;;;;;9986779;28;20549;-69
2022/06/05 10:19:11;;;;;;;31.27;25.90;;;;;;;;;;9974051;28;20050;-70
2022/06/05 10:24:04;;;;;;;30.80;24.90;;;;;;;;;;9987149;28;20112;-67
2022/06/05 10:29:28;;;;;;;28.60;25.55;;;;;;;;;;9975763;28;20059;-67
2022/06/05 10:34:49;;;;;;;27.88;23.77;;;;;;;;;;9962467;28;20474;-67
2022/06/05 10:40:18;;;;;;;26.10;21.27;;;;;;;;;;9978941;28;20133;-67
2022/06/05 10:45:34;;;;;;;32.00;22.05;;;;;;;;;;9975848;28;20055;-69
2022/06/05 10:50:36;;;;;;;25.15;19.98;;;;;;;;;;9970312;28;20046;-67
2022/06/05 10:55:35;;;;;;;27.02;19.33;;;;;;;;;;9979871;28;20502;-67
2022/06/05 11:00:56;;;;;;;25.92;19.00;;;;;;;;;;9985662;28;21228;-69
2022/06/05 11:06:13;;;;;;;21.60;17.17;;;;;;;;;;9975727;28;20502;-67
2022/06/05 11:16:58;;;;;;;21.48;14.27;;;;;;;;;;9971912;28;20092;-72
2022/06/05 11:22:15;;;;;;;27.00;13.68;;;;;;;;;;9954027;28;20101;-73
2022/06/05 11:27:53;;;;;;;19.25;12.63;;;;;;;;;;9980778;28;20085;-73
2022/06/05 11:33:30;;;;;;;21.65;14.82;;;;;;;;;;9987244;28;20490;-71
2022/06/05 11:38:35;;;;;;;24.35;14.75;;;;;;;;;;9975144;28;20042;-72
2022/06/05 11:43:34;;;;;;;17.73;15.57;;;;;;;;;;9986276;28;20046;-70
2022/06/05 11:48:52;;;;;;;;;;;;;;;;;;9989222;28;20050;-71
2022/06/05 11:54:04;;;;;;;25.35;15.45;;;;;;;;;;9971973;28;19928;-71
2022/06/05 11:59:33;;;;;;;25.42;14.25;;;;;;;;;;9992431;28;20061;-65
2022/06/05 12:04:48;;;;;;;22.55;13.88;;;;;;;;;;9981661;28;20452;-66
2022/06/05 12:09:48;;;;;;;25.33;14.25;;;;;;;;;;9965368;28;20050;-65
2022/06/05 12:15:15;;;;;;;16.73;12.52;;;;;;;;;;9967192;28;20066;-70
2022/06/05 12:20:16;;;;;;;22.02;14.13;;;;;;;;;;9985011;28;20088;-70
2022/06/05 12:25:45;;;;;;;23.33;13.80;;;;;;;;;;9987855;28;20050;-74
2022/06/05 12:30:59;;;;;;;;;;;;;;;;;;9985055;28;20039;-72
2022/06/05 12:35:55;;;;;;;19.05;12.45;;;;;;;;;;9986781;28;19922;-72
2022/06/05 12:41:15;;;;;;;17.85;12.10;;;;;;;;;;9977381;28;20566;-71
2022/06/05 12:46:34;;;;;;;20.38;11.98;;;;;;;;;;9983424;28;20087;-74
2022/06/05 12:51:29;;;;;;;20.33;10.50;;;;;;;;;;9982634;28;20073;-76
2022/06/05 12:56:43;;;;;;;17.92;12.13;;;;;;;;;;9968981;28;20505;-71
2022/06/05 13:01:58;;;;;;;17.02;11.95;;;;;;;;;;9970649;28;20525;-75
2022/06/05 13:07:15;;;;;;;22.33;11.43;;;;;;;;;;9970473;28;20065;-70
2022/06/05 13:12:26;;;;;;;22.70;12.43;;;;;;;;;;9982528;28;20085;-71
2022/06/05 13:17:46;;;;;;;20.33;11.32;;;;;;;;;;9980809;28;20498;-75
2022/06/05 13:23:07;;;;;;;17.58;12.23;;;;;;;;;;9986486;28;20050;-75
2022/06/05 13:28:42;;;;;;;21.80;13.50;;;;;;;;;;9969273;28;20046;-75
2022/06/05 13:33:44;;;;;;;24.73;11.82;;;;;;;;;;9968964;28;20074;-75
2022/06/05 13:39:03;;;;;;;19.58;10.80;;;;;;;;;;9965374;28;20062;-71
2022/06/05 13:44:09;;;;;;;21.35;11.63;;;;;;;;;;9987252;28;20081;-72
2022/06/05 13:49:38;;;;;;;20.35;10.40;;;;;;;;;;9970308;28;20494;-76
2022/06/05 13:54:35;;;;;;;20.65;11.60;;;;;;;;;;9970144;28;20055;-73
2022/06/05 14:00:01;;;;;;;30.10;10.82;;;;;;;;;;9957407;28;20054;-76
2022/06/05 14:05:14;;;;;;;19.67;8.40;;;;;;;;;;9969054;28;20071;-76
2022/06/05 14:10:08;;;;;;;23.25;9.23;;;;;;;;;;9837716;28;20054;-76
2022/06/05 14:15:23;;;;;;;17.98;9.43;;;;;;;;;;9976285;28;20049;-77
2022/06/05 14:20:22;;;;;;;25.00;10.05;;;;;;;;;;9985064;28;20486;-68
2022/06/05 14:25:42;;;;;;;22.83;9.15;;;;;;;;;;9964145;28;20112;-68
2022/06/05 14:30:51;;;;;;;19.38;8.80;;;;;;;;;;9983487;28;20058;-68
2022/06/05 14:35:49;;;;;;;;;;;;;;;;;;9973975;28;20058;-68
2022/06/05 14:40:53;;;;;;;27.48;8.95;;;;;;;;;;9983287;28;19925;-69
2022/06/05 14:45:56;;;;;;;24.75;10.50;;;;;;;;;;9965776;28;20110;-68
2022/06/05 14:50:59;;;;;;;25.15;9.82;;;;;;;;;;9963152;28;20497;-70
2022/06/05 15:01:21;;;;;;;16.02;10.13;;;;;;;;;;9975920;28;20142;-71
2022/06/05 15:06:20;;;;;;;17.13;8.80;;;;;;;;;;9981181;28;20054;-70
2022/06/05 15:11:39;;;;;;;24.08;9.25;;;;;;;;;;9979005;28;20093;-69
2022/06/05 15:16:43;;;;;;;13.48;9.13;;;;;;;;;;9974141;28;20560;-70
2022/06/05 15:22:01;;;;;;;16.77;8.10;;;;;;;;;;9992789;28;20069;-69
2022/06/05 15:27:04;;;;;;;21.75;9.52;;;;;;;;;;9999377;28;20068;-70
2022/06/05 15:32:19;;;;;;;30.27;10.05;;;;;;;;;;9982877;28;20061;-69
2022/06/05 15:37:24;;;;;;;22.58;9.98;;;;;;;;;;9992730;28;20418;-69
2022/06/05 15:42:21;;;;;;;16.73;8.70;;;;;;;;;;9989273;28;20062;-69
2022/06/05 15:47:32;;;;;;;20.80;8.02;;;;;;;;;;9962093;28;20089;-69
2022/06/05 15:52:41;;;;;;;21.27;8.73;;;;;;;;;;9980344;28;20054;-69
2022/06/05 15:58:25;;;;;;;27.55;9.43;;;;;;;;;;9992516;28;20132;-68
2022/06/05 16:03:21;;;;;;;20.00;8.40;;;;;;;;;;9981428;28;20494;-68
2022/06/05 16:08:31;;;;;;;16.20;8.23;;;;;;;;;;9988322;28;20047;-68
2022/06/05 16:13:27;;;;;;;19.42;8.52;;;;;;;;;;9989863;28;20383;-67
2022/06/05 16:18:52;;;;;;;20.05;8.13;;;;;;;;;;9976369;28;20916;-67
2022/06/05 16:24:35;;;;;;;23.17;9.05;;;;;;;;;;9980066;28;20528;-65
2022/06/05 16:29:38;;;;;;;18.15;5.03;;;;;;;;;;9989853;28;20042;-66
2022/06/05 16:37:53;;;;;;;25.20;3.60;;;;;;;;;;9972307;28;20124;-66
2022/06/05 16:39:55;;;;;;;18.63;3.60;;;;;;;;;;9988347;28;20085;-66
2022/06/05 16:45:03;;;;;;;19.10;5.55;;;;;;;;;;9986545;28;20145;-65
2022/06/05 16:50:04;;;;;;;23.92;4.63;;;;;;;;;;9984522;28;20061;-65
2022/06/05 16:55:17;;;;;;;36.88;4.72;;;;;;;;;;9985563;28;20097;-65
2022/06/05 17:00:12;;;;;;;21.75;3.72;;;;;;;;;;9985770;28;20042;-65
2022/06/05 17:05:16;;;;;;;22.00;4.33;;;;;;;;;;9986305;28;20096;-64
2022/06/05 17:10:25;;;;;;;34.20;4.40;;;;;;;;;;9986658;28;20065;-66
2022/06/05 17:15:43;;;;;;;27.65;5.57;;;;;;;;;;9986564;28;20452;-67
2022/06/05 17:21:04;;;;;;;30.63;3.85;;;;;;;;;;9983061;28;20105;-66
2022/06/05 17:26:23;;;;;;;16.35;3.30;;;;;;;;;;9985295;28;20062;-66
2022/06/05 17:31:42;;;;;;;35.78;6.60;;;;;;;;;;9984241;28;20046;-65
2022/06/05 17:37:03;;;;;;;17.15;4.20;;;;;;;;;;9979923;28;20046;-63
2022/06/05 17:42:25;;;;;;;19.63;4.18;;;;;;;;;;9977606;28;20086;-64
2022/06/05 17:47:34;;;;;;;18.98;3.28;;;;;;;;;;9978148;28;20093;-63
2022/06/05 17:52:28;;;;;;;21.50;4.38;;;;;;;;;;9984675;28;20043;-64
2022/06/05 17:57:30;;;;;;;34.95;3.80;;;;;;;;;;9969304;28;20098;-63
2022/06/05 18:02:27;;;;;;;32.95;5.45;;;;;;;;;;9968789;28;20520;-63
2022/06/05 18:07:34;;;;;;;26.15;3.47;;;;;;;;;;9984511;28;20141;-64
2022/06/05 18:12:36;;;;;;;22.63;5.20;;;;;;;;;;9982352;28;20054;-64
2022/06/05 18:17:37;;;;;;;21.85;4.30;;;;;;;;;;9966659;28;20061;-63
2022/06/05 18:22:36;;;;;;;22.63;4.78;;;;;;;;;;9966801;28;20137;-67
2022/06/05 18:27:33;;;;;;;28.25;6.47;;;;;;;;;;9979821;28;20157;-65
2022/06/05 18:32:42;;;;;;;22.40;4.05;;;;;;;;;;9980552;28;20133;-65
2022/06/05 18:43:03;;;;;;;17.42;4.00;;;;;;;;;;9982779;28;20054;-66
2022/06/05 18:48:03;;;;;;;20.35;4.07;;;;;;;;;;9970194;28;20043;-66
2022/06/05 18:53:01;;;;;;;19.75;3.92;;;;;;;;;;9983900;28;20522;-67
2022/06/05 18:57:55;;;;;;;17.53;3.97;;;;;;;;;;9966233;28;20038;-67
2022/06/05 19:02:54;;;;;;;13.10;3.30;;;;;;;;;;9984027;28;20137;-70
2022/06/05 19:07:49;;;;;;;21.85;3.63;;;;;;;;;;9981109;28;20397;-67
2022/06/05 19:13:01;;;;;;;13.57;3.22;;;;;;;;;;9983539;28;20050;-67
2022/06/05 19:18:25;;;;;;;21.02;3.92;;;;;;;;;;9981002;28;20104;-65
2022/06/05 19:23:52;;;;;;;30.25;3.95;;;;;;;;;;9952844;28;20916;-66
2022/06/05 19:29:17;;;;;;;14.32;3.45;;;;;;;;;;9972046;28;20157;-66
2022/06/05 19:34:46;;;;;;;17.73;3.85;;;;;;;;;;9982972;28;20130;-67
2022/06/05 19:39:43;;;;;;;14.70;4.25;;;;;;;;;;9979422;28;20100;-66
2022/06/05 19:45:16;;;;;;;23.00;3.65;;;;;;;;;;9973488;28;20107;-67
2022/06/05 19:50:53;;;;;;;24.73;6.20;;;;;;;;;;9981238;28;20105;-67
2022/06/05 19:55:49;;;;;;;16.40;4.40;;;;;;;;;;9986147;28;20133;-66
2022/06/05 20:00:45;;;;;;;15.67;3.87;;;;;;;;;;9988790;28;20490;-66
2022/06/05 20:05:41;;;;;;;17.30;4.45;;;;;;;;;;9989118;28;20309;-65
2022/06/05 20:10:59;;;;;;;25.15;4.65;;;;;;;;;;9990449;28;20145;-67
2022/06/05 20:15:57;;;;;;;24.17;3.83;;;;;;;;;;9983579;28;20054;-66
2022/06/05 20:20:56;;;;;;;20.60;3.70;;;;;;;;;;9965296;28;20054;-68
2022/06/05 20:26:19;;;;;;;15.48;5.40;;;;;;;;;;9968311;28;20058;-67
2022/06/05 20:31:18;;;;;;;21.60;4.65;;;;;;;;;;9987336;28;20141;-67
2022/06/05 20:36:14;;;;;;;26.60;7.22;;;;;;;;;;9986312;28;20062;-67
2022/06/05 20:41:16;;;;;;;19.70;4.00;;;;;;;;;;9983551;28;20477;-67
2022/06/05 20:46:23;;;;;;;27.35;4.45;;;;;;;;;;9981579;28;20049;-66
2022/06/05 20:51:20;;;;;;;28.25;4.90;;;;;;;;;;9963376;28;20053;-65
2022/06/05 20:57:04;;;;;;;14.85;3.88;;;;;;;;;;9982259;28;20150;-66
2022/06/05 21:02:04;;;;;;;18.73;5.40;;;;;;;;;;9981922;28;20050;-64
2022/06/05 21:07:24;;;;;;;11.82;5.88;;;;;;;;;;9965251;28;20057;-64
2022/06/05 21:17:54;;;;;;;18.60;6.70;;;;;;;;;;9970139;28;20143;-62
2022/06/05 21:22:50;;;;;;;19.25;5.32;;;;;;;;;;9966083;28;20101;-63
2022/06/05 21:27:49;;;;;;;21.60;5.25;;;;;;;;;;9984344;28;20062;-62
2022/06/05 21:32:52;;;;;;;20.60;4.88;;;;;;;;;;9984081;28;20138;-62
2022/06/05 21:37:49;;;;;;;21.00;4.60;;;;;;;;;;9984609;28;20058;-62
2022/06/05 21:42:49;;;;;;;22.75;4.75;;;;;;;;;;9967533;28;20054;-63
2022/06/05 21:47:46;;;;;;;13.32;4.03;;;;;;;;;;9984030;28;20402;-61
2022/06/05 21:52:45;;;;;;;24.17;6.15;;;;;;;;;;9969165;28;20116;-62
2022/06/05 21:57:43;;;;;;;21.02;4.80;;;;;;;;;;9980279;28;20057;-62
2022/06/05 22:02:38;;;;;;;29.40;7.13;;;;;;;;;;9962579;28;20054;-63
2022/06/05 22:07:33;;;;;;;20.50;4.95;;;;;;;;;;9980433;28;20413;-62
2022/06/05 22:12:27;;;;;;;17.02;4.78;;;;;;;;;;9975998;28;20463;-64
2022/06/05 22:17:23;;;;;;;12.35;5.03;;;;;;;;;;9977192;28;20069;-63
2022/06/05 22:22:17;;;;;;;23.73;4.32;;;;;;;;;;9981394;28;20061;-64
2022/06/05 22:27:31;;;;;;;22.08;5.55;;;;;;;;;;9975465;28;20086;-66
2022/06/05 22:32:27;;;;;;;15.25;4.22;;;;;;;;;;9981557;28;20049;-64
2022/06/05 22:37:25;;;;;;;19.63;4.88;;;;;;;;;;9980887;28;20051;-63
2022/06/05 22:42:19;;;;;;;25.20;7.05;;;;;;;;;;9980994;28;20054;-64
2022/06/05 22:47:14;;;;;;;19.35;4.88;;;;;;;;;;9979943;28;20117;-68
2022/06/05 22:52:11;;;;;;;17.55;4.45;;;;;;;;;;9980618;28;20093;-68
2022/06/05 22:57:08;;;;;;;22.23;4.80;;;;;;;;;;9972319;28;20062;-68
2022/06/05 23:02:03;;;;;;;19.27;6.32;;;;;;;;;;9965543;28;20096;-68
2022/06/05 23:06:58;;;;;;;22.50;5.53;;;;;;;;;;9965313;28;20056;-68
2022/06/05 23:11:54;;;;;;;18.27;7.68;;;;;;;;;;9977971;28;20506;-68
2022/06/05 23:16:48;;;;;;;37.45;7.47;;;;;;;;;;9980077;28;20063;-68
2022/06/05 23:21:44;;;;;;;18.85;5.75;;;;;;;;;;9974005;28;20469;-68
2022/06/05 23:26:39;;;;;;;12.15;4.80;;;;;;;;;;9988364;28;20089;-67
2022/06/05 23:31:35;;;;;;;16.13;5.05;;;;;;;;;;9982744;28;20124;-68
2022/06/05 23:36:30;;;;;;;26.30;6.50;;;;;;;;;;9983563;28;20141;-67
2022/06/05 23:41:28;;;;;;;20.50;5.72;;;;;;;;;;9986811;28;20513;-69
2022/06/05 23:46:24;;;;;;;25.02;5.15;;;;;;;;;;9980925;28;20054;-67
2022/06/05 23:51:20;;;;;;;16.90;5.10;;;;;;;;;;9980707;28;20053;-67
2022/06/05 23:56:18;;;;;;;17.85;5.55;;;;;;;;;;9982226;28;20193;-68
